createdAt,value
2023-03-13T00:02:46.844Z,95368.81
2023-03-13T00:07:50.097Z,95356.13
2023-03-13T00:12:52.559Z,95345.41
2023-03-13T00:17:54.931Z,95338.19
2023-03-13T00:22:57.402Z,95352.28
2023-03-13T00:28:00.131Z,95342.56
2023-03-13T00:33:02.688Z,95333.69
2023-03-13T00:38:05.435Z,95326.69
2023-03-13T00:43:08.088Z,95309.91
2023-03-13T00:48:10.729Z,95302.38
2023-03-13T00:53:13.029Z,95303.31
2023-03-13T00:58:15.336Z,95303.22
2023-03-13T01:03:17.936Z,95303.44
2023-03-13T01:08:20.364Z,95296.41
2023-03-13T01:13:22.675Z,95298.41
2023-03-13T01:18:26.064Z,95283.06
2023-03-13T01:23:29.451Z,95281.66
2023-03-13T01:28:32.243Z,95278.44
2023-03-13T01:33:34.509Z,95274.59
2023-03-13T01:38:36.787Z,95270.81
2023-03-13T01:43:39.529Z,95264.38
2023-03-13T01:48:48.614Z,95271.22
2023-03-13T01:53:51.673Z,95268.91
2023-03-13T01:58:54.062Z,95262.53
2023-03-13T02:03:56.370Z,95254.56
2023-03-13T02:08:58.638Z,95249.31
2023-03-13T02:14:01.420Z,95243.00
2023-03-13T02:19:04.954Z,95237.84
2023-03-13T02:24:07.486Z,95228.53
2023-03-13T02:29:10.016Z,95234.94
2023-03-13T02:34:12.534Z,95227.75
2023-03-13T02:39:14.915Z,95246.00
2023-03-13T02:44:17.633Z,95254.03
2023-03-13T02:49:20.131Z,95248.97
2023-03-13T02:54:23.722Z,95245.84
2023-03-13T02:59:26.966Z,95244.31
2023-03-13T03:04:29.558Z,95244.31
2023-03-13T03:09:32.139Z,95242.84
2023-03-13T03:14:34.918Z,95235.41
2023-03-13T03:19:37.484Z,95237.56
2023-03-13T03:24:39.794Z,95242.91
2023-03-13T03:29:42.680Z,95239.25
2023-03-13T03:34:45.082Z,95243.50
2023-03-13T03:39:47.373Z,95237.63
2023-03-13T03:44:49.668Z,95227.19
2023-03-13T03:49:53.571Z,95236.84
2023-03-13T03:54:56.062Z,95228.56
2023-03-13T03:59:59.002Z,95222.78
2023-03-13T04:05:01.856Z,95212.06
2023-03-13T04:10:05.241Z,95202.22
2023-03-13T04:15:07.694Z,95199.31
2023-03-13T04:20:13.637Z,95184.72
2023-03-13T04:25:25.938Z,95174.13
2023-03-13T04:30:28.372Z,95162.16
2023-03-13T04:35:32.236Z,95157.38
2023-03-13T04:40:34.951Z,95142.47
2023-03-13T04:45:37.848Z,95143.31
2023-03-13T04:50:41.068Z,95130.34
2023-03-13T04:55:43.595Z,95114.22
2023-03-13T05:00:49.021Z,95114.00
2023-03-13T05:05:51.387Z,95104.72
2023-03-13T05:11:03.123Z,95110.31
2023-03-13T05:16:05.475Z,95094.91
2023-03-13T05:21:08.181Z,95092.81
2023-03-13T05:26:10.534Z,95089.13
2023-03-13T05:31:14.133Z,95070.53
2023-03-13T05:36:16.586Z,95083.88
2023-03-13T05:41:19.306Z,95077.78
2023-03-13T05:46:24.053Z,95058.94
2023-03-13T05:51:26.386Z,95052.09
2023-03-13T05:56:28.707Z,95056.91
2023-03-13T06:01:31.095Z,95058.31
2023-03-13T06:06:43.377Z,95045.00
2023-03-13T06:11:52.827Z,95045.31
2023-03-13T06:16:56.891Z,95031.41
2023-03-13T06:21:59.288Z,95022.91
2023-03-13T06:27:01.704Z,95013.06
2023-03-13T06:32:04.898Z,95013.63
2023-03-13T06:37:07.608Z,95017.06
2023-03-13T06:42:19.562Z,95006.91
2023-03-13T06:47:22.278Z,95009.03
2023-03-13T06:52:37.451Z,95015.69
2023-03-13T06:57:44.114Z,95017.00
2023-03-13T07:02:47.426Z,95016.22
2023-03-13T07:07:49.857Z,95013.78
2023-03-13T07:12:52.206Z,95011.91
2023-03-13T07:17:54.541Z,95016.94
2023-03-13T07:22:57.629Z,95005.34
2023-03-13T07:28:01.448Z,95001.25
2023-03-13T07:33:03.965Z,95008.72
2023-03-13T07:38:09.469Z,95004.94
2023-03-13T07:43:11.891Z,94997.63
2023-03-13T07:48:14.693Z,94999.56
2023-03-13T07:53:21.150Z,94992.56
2023-03-13T07:58:23.592Z,95006.16
2023-03-13T08:03:25.943Z,95002.41
2023-03-13T08:08:28.391Z,94993.81
2023-03-13T08:13:31.028Z,94978.25
2023-03-13T08:18:35.198Z,94978.66
2023-03-13T08:23:37.694Z,94981.69
2023-03-13T08:28:40.186Z,94984.75
2023-03-13T08:33:43.542Z,94987.06
2023-03-13T08:38:46.898Z,94984.84
2023-03-13T08:43:49.254Z,94987.53
2023-03-13T08:48:51.782Z,94986.81
2023-03-13T08:53:54.201Z,94984.31
2023-03-13T08:58:56.634Z,94984.75
2023-03-13T09:04:03.465Z,94978.59
2023-03-13T09:09:07.010Z,94971.97
2023-03-13T09:14:09.852Z,94964.59
2023-03-13T09:19:12.907Z,94961.91
2023-03-13T09:24:15.701Z,94958.34
2023-03-13T09:29:18.875Z,94953.72
2023-03-13T09:34:23.262Z,94945.16
2023-03-13T09:39:26.446Z,94934.97
2023-03-13T09:44:28.795Z,94922.78
2023-03-13T09:49:32.066Z,94929.78
2023-03-13T09:54:35.800Z,94915.50
2023-03-13T09:59:40.128Z,94912.34
2023-03-13T10:04:42.689Z,94905.03
2023-03-13T10:09:45.098Z,94895.22
2023-03-13T10:14:47.533Z,94899.34
2023-03-13T10:19:49.916Z,94882.09
2023-03-13T10:24:52.279Z,94878.47
2023-03-13T10:29:55.984Z,94884.38
2023-03-13T10:34:58.528Z,94877.84
2023-03-13T10:40:00.941Z,94865.63
2023-03-13T10:45:03.383Z,94853.09
2023-03-13T10:50:15.771Z,94853.03
2023-03-13T10:55:28.216Z,94845.38
2023-03-13T11:00:30.686Z,94832.81
2023-03-13T11:05:33.214Z,94840.22
2023-03-13T11:10:37.138Z,94826.94
2023-03-13T11:15:40.058Z,94818.63
2023-03-13T11:20:42.425Z,94811.34
2023-03-13T11:25:45.585Z,94821.22
2023-03-13T11:30:48.054Z,94808.34
2023-03-13T11:35:50.545Z,94801.66
2023-03-13T11:40:53.038Z,94767.28
2023-03-13T11:45:55.508Z,94785.13
2023-03-13T11:50:58.995Z,94791.34
2023-03-13T11:56:01.348Z,94781.75
2023-03-13T12:01:13.820Z,94776.97
2023-03-13T12:06:27.583Z,94762.41
2023-03-13T12:11:30.746Z,94739.97
2023-03-13T12:16:33.122Z,94740.69
2023-03-13T12:21:36.341Z,94737.63
2023-03-13T12:26:38.676Z,94734.91
2023-03-13T12:31:40.971Z,94721.56
2023-03-13T12:36:43.369Z,94715.78
2023-03-13T12:41:46.492Z,94717.06
2023-03-13T12:46:48.978Z,94707.31
2023-03-13T12:51:51.347Z,94689.44
2023-03-13T12:56:53.700Z,94684.69
2023-03-13T13:01:56.401Z,94678.84
2023-03-13T13:07:01.856Z,94667.16
2023-03-13T13:12:14.308Z,94661.28
2023-03-13T13:17:18.430Z,94653.72
2023-03-13T13:22:20.885Z,94645.94
2023-03-13T13:27:23.203Z,94636.69
2023-03-13T13:32:26.347Z,94631.03
2023-03-13T13:37:30.099Z,94629.53
2023-03-13T13:42:45.577Z,94633.91
2023-03-13T13:47:47.909Z,94615.06
2023-03-13T13:52:50.378Z,94603.94
2023-03-13T13:57:52.757Z,94592.56
2023-03-13T14:02:55.900Z,94579.97
2023-03-13T14:07:59.149Z,94567.81
2023-03-13T14:13:01.525Z,94558.72
2023-03-13T14:18:03.857Z,94548.38
2023-03-13T14:23:06.319Z,94535.22
2023-03-13T14:28:08.767Z,94514.81
2023-03-13T14:33:11.095Z,94512.78
2023-03-13T14:38:14.662Z,94500.16
2023-03-13T14:43:17.048Z,94500.50
2023-03-13T14:48:19.533Z,94489.53
2023-03-13T14:53:21.940Z,94472.03
2023-03-13T14:58:24.325Z,94455.56
2023-03-13T15:03:27.321Z,94445.78
2023-03-13T15:08:39.662Z,94433.84
2023-03-13T15:13:42.253Z,94422.53
2023-03-13T15:18:44.727Z,94410.50
2023-03-13T15:23:48.028Z,94404.47
2023-03-13T15:28:50.502Z,94389.81
2023-03-13T15:33:52.869Z,94368.19
2023-03-13T15:38:55.206Z,94357.84
2023-03-13T15:43:57.710Z,94365.88
2023-03-13T15:49:00.036Z,94351.16
2023-03-13T15:54:04.064Z,94343.13
2023-03-13T15:59:07.300Z,94331.09
2023-03-13T16:04:10.436Z,94314.47
2023-03-13T16:09:12.795Z,94299.59
2023-03-13T16:14:15.128Z,94277.16
2023-03-13T16:19:18.189Z,94273.19
2023-03-13T16:24:20.989Z,94265.69
2023-03-13T16:29:24.277Z,94261.97
2023-03-13T16:34:27.430Z,94269.72
2023-03-13T16:39:29.818Z,94239.94
2023-03-13T16:44:32.146Z,94232.94
2023-03-13T16:49:35.083Z,94225.28
2023-03-13T16:54:37.434Z,94206.06
2023-03-13T16:59:39.766Z,94207.72
2023-03-13T17:04:44.623Z,94188.47
2023-03-13T17:09:47.282Z,94187.56
2023-03-13T17:14:49.664Z,94178.66
2023-03-13T17:19:52.788Z,94161.00
2023-03-13T17:24:55.533Z,94153.53
2023-03-13T17:29:58.772Z,94137.03
2023-03-13T17:35:01.379Z,94139.25
2023-03-13T17:40:05.755Z,94151.47
2023-03-13T17:45:08.084Z,94154.09
2023-03-13T17:50:10.379Z,94141.34
2023-03-13T17:55:13.652Z,94134.50
2023-03-13T18:00:15.936Z,94141.31
2023-03-13T18:05:18.332Z,94140.63
2023-03-13T18:10:20.643Z,94127.81
2023-03-13T18:15:24.943Z,94142.94
2023-03-13T18:20:27.323Z,94132.22
2023-03-13T18:25:29.692Z,94137.19
2023-03-13T18:30:32.051Z,94125.16
2023-03-13T18:35:34.491Z,94111.41
2023-03-13T18:40:37.020Z,94096.38
2023-03-13T18:45:39.393Z,94084.84
2023-03-13T18:50:41.797Z,94059.72
2023-03-13T18:55:45.044Z,94041.19
2023-03-13T19:00:47.508Z,94029.19
2023-03-13T19:05:49.910Z,93998.50
2023-03-13T19:10:53.204Z,93988.19
2023-03-13T19:15:55.621Z,93979.19
2023-03-13T19:20:58.773Z,93970.03
2023-03-13T19:26:01.592Z,93956.44
2023-03-13T19:31:04.024Z,93960.59
2023-03-13T19:36:06.465Z,93955.72
2023-03-13T19:41:08.788Z,93940.06
2023-03-13T19:46:12.029Z,93946.41
2023-03-13T19:51:15.426Z,93930.47
2023-03-13T19:56:18.644Z,93926.38
2023-03-13T20:01:21.149Z,93913.75
2023-03-13T20:06:23.676Z,93924.97
2023-03-13T20:11:26.121Z,93925.91
2023-03-13T20:16:30.208Z,93938.69
2023-03-13T20:21:33.348Z,93945.44
2023-03-13T20:26:36.155Z,93955.53
2023-03-13T20:31:39.799Z,93957.09
2023-03-13T20:36:42.163Z,93943.50
2023-03-13T20:41:44.929Z,93935.69
2023-03-13T20:46:47.340Z,93933.75
2023-03-13T20:51:49.677Z,93925.56
2023-03-13T20:56:52.042Z,93913.25
2023-03-13T21:01:54.459Z,93912.28
2023-03-13T21:07:04.347Z,93917.19
2023-03-13T21:12:06.772Z,93916.22
2023-03-13T21:17:12.735Z,93917.78
2023-03-13T21:22:17.169Z,93898.03
2023-03-13T21:27:20.390Z,93901.34
2023-03-13T21:32:23.573Z,93888.94
2023-03-13T21:37:26.013Z,93903.44
2023-03-13T21:42:29.421Z,93901.72
2023-03-13T21:47:36.596Z,93913.84
2023-03-13T21:52:41.306Z,93917.97
2023-03-13T21:57:45.024Z,93928.38
2023-03-13T22:02:47.371Z,93942.44
2023-03-13T22:07:49.666Z,93959.06
2023-03-13T22:12:52.017Z,94013.56
2023-03-13T22:17:54.796Z,94147.06
2023-03-13T22:22:57.892Z,94165.91
2023-03-13T22:28:00.197Z,94165.13
2023-03-13T22:33:03.958Z,94178.25
2023-03-13T22:38:07.116Z,94176.50
2023-03-13T22:43:10.264Z,94199.91
2023-03-13T22:48:13.341Z,94190.13
2023-03-13T22:53:16.322Z,94171.75
2023-03-13T22:58:18.637Z,94164.94
2023-03-13T23:03:21.046Z,94177.75
2023-03-13T23:08:33.467Z,94198.13
2023-03-13T23:13:40.483Z,94196.34
2023-03-13T23:18:44.396Z,94186.28
2023-03-13T23:23:47.142Z,94185.06
2023-03-13T23:28:49.443Z,94176.34
2023-03-13T23:33:51.783Z,94193.31
2023-03-13T23:38:54.514Z,94179.31
2023-03-13T23:43:57.397Z,94177.91
2023-03-13T23:48:59.711Z,94189.84
2023-03-13T23:54:04.993Z,94218.13
2023-03-13T23:59:18.348Z,94226.59
